Time;durP1;ratioP1;P1;durP2;ratioP2;P2;SDS_P1;SDS_P2;PMS_P1;PMS_P2;Temp;Humidity;BMP_temperature;BMP_pressure;BME280_temperature;BME280_humidity;BME280_pressure;Samples;Min_cycle;Max_cycle;Signal;HPM_P1;HPM_P2
2021/06/11 00:01:50;;;;;;;2.60;0.80;;;;;;;;;;4916154;29;20048;-57
2021/06/11 00:04:15;;;;;;;3.78;0.88;;;;;;;;;;4914368;29;20047;-58
2021/06/11 00:06:41;;;;;;;4.43;0.90;;;;;;;;;;4913687;29;20056;-57
2021/06/11 00:09:07;;;;;;;3.40;0.88;;;;;;;;;;4913606;29;20135;-57
2021/06/11 00:11:34;;;;;;;2.97;0.80;;;;;;;;;;4910501;29;20040;-58
2021/06/11 00:14:00;;;;;;;2.50;0.60;;;;;;;;;;4912756;29;20048;-59
2021/06/11 00:16:25;;;;;;;2.22;0.60;;;;;;;;;;4910769;29;20036;-54
2021/06/11 00:18:51;;;;;;;4.43;0.80;;;;;;;;;;4913299;29;20453;-56
2021/06/11 00:21:17;;;;;;;3.30;0.70;;;;;;;;;;4913328;29;20051;-56
2021/06/11 00:23:43;;;;;;;2.10;0.65;;;;;;;;;;4912621;29;20052;-55
2021/06/11 00:26:09;;;;;;;3.45;0.70;;;;;;;;;;4912373;29;20051;-53
2021/06/11 00:28:34;;;;;;;3.03;0.70;;;;;;;;;;4911706;29;20081;-55
2021/06/11 00:31:00;;;;;;;6.13;0.80;;;;;;;;;;4912552;29;20122;-54
2021/06/11 00:33:26;;;;;;;3.00;0.88;;;;;;;;;;4911316;29;20563;-57
2021/06/11 00:35:53;;;;;;;2.45;0.60;;;;;;;;;;4909858;29;20532;-56
2021/06/11 00:38:19;;;;;;;1.85;0.65;;;;;;;;;;4912834;29;20397;-56
2021/06/11 00:40:45;;;;;;;5.43;0.80;;;;;;;;;;4913379;29;20044;-55
2021/06/11 00:43:14;;;;;;;4.20;0.95;;;;;;;;;;4912864;29;20044;-53
2021/06/11 00:45:44;;;;;;;3.38;0.80;;;;;;;;;;4909714;29;22209;-55
2021/06/11 00:48:10;;;;;;;3.05;0.80;;;;;;;;;;4912070;29;20040;-54
2021/06/11 00:50:36;;;;;;;2.25;0.70;;;;;;;;;;4912882;29;20152;-54
2021/06/11 00:53:03;;;;;;;2.92;0.82;;;;;;;;;;4913560;29;21965;-55
2021/06/11 00:55:29;;;;;;;2.90;0.80;;;;;;;;;;4912434;29;20548;-55
2021/06/11 00:57:56;;;;;;;5.28;0.73;;;;;;;;;;4914378;29;20086;-56
2021/06/11 01:00:21;;;;;;;5.88;0.82;;;;;;;;;;4913389;29;20405;-55
2021/06/11 01:02:47;;;;;;;3.30;0.60;;;;;;;;;;4913359;29;20043;-55
2021/06/11 01:05:13;;;;;;;4.68;0.90;;;;;;;;;;4912061;29;20052;-54
2021/06/11 01:07:41;;;;;;;3.70;0.90;;;;;;;;;;4910280;29;20123;-55
2021/06/11 01:10:08;;;;;;;2.65;0.90;;;;;;;;;;4911309;29;20044;-54
2021/06/11 01:12:35;;;;;;;2.22;0.70;;;;;;;;;;4917773;29;20032;-56
2021/06/11 01:15:01;;;;;;;2.45;0.80;;;;;;;;;;4898511;29;20155;-54
2021/06/11 01:17:27;;;;;;;2.17;0.75;;;;;;;;;;4912033;29;20047;-55
2021/06/11 01:19:53;;;;;;;2.38;0.82;;;;;;;;;;4915784;29;20039;-54
2021/06/11 01:22:23;;;;;;;2.60;0.80;;;;;;;;;;4896619;29;20180;-56
2021/06/11 01:24:55;;;;;;;5.60;0.80;;;;;;;;;;4913163;29;20055;-55
2021/06/11 01:27:22;;;;;;;2.70;0.80;;;;;;;;;;4910664;29;20565;-56
2021/06/11 01:29:52;;;;;;;2.78;0.90;;;;;;;;;;4913810;29;20046;-55
2021/06/11 01:32:19;;;;;;;3.85;1.45;;;;;;;;;;4896851;29;20131;-56
2021/06/11 01:34:45;;;;;;;3.05;1.00;;;;;;;;;;4910642;29;20047;-53
2021/06/11 01:37:22;;;;;;;2.28;0.70;;;;;;;;;;4913246;29;20050;-56
2021/06/11 01:39:57;;;;;;;3.67;0.95;;;;;;;;;;4912324;29;20131;-56
2021/06/11 01:42:23;;;;;;;4.57;0.90;;;;;;;;;;4911234;29;20067;-52
2021/06/11 01:44:50;;;;;;;4.05;0.80;;;;;;;;;;4914493;29;20060;-54
2021/06/11 01:47:16;;;;;;;6.10;0.95;;;;;;;;;;4911603;29;20031;-55
2021/06/11 01:49:43;;;;;;;6.07;0.88;;;;;;;;;;4911304;29;20051;-55
2021/06/11 01:52:10;;;;;;;4.35;0.80;;;;;;;;;;4917721;29;20643;-53
2021/06/11 01:54:37;;;;;;;2.70;0.82;;;;;;;;;;4916267;29;20047;-56
2021/06/11 01:57:04;;;;;;;2.78;0.80;;;;;;;;;;4916248;29;20044;-54
2021/06/11 01:59:30;;;;;;;2.50;0.70;;;;;;;;;;4916811;29;20086;-55
2021/06/11 02:01:56;;;;;;;2.40;0.90;;;;;;;;;;4916091;29;20163;-54
2021/06/11 02:04:23;;;;;;;2.63;0.80;;;;;;;;;;4915022;29;20058;-54
2021/06/11 02:06:49;;;;;;;3.97;0.93;;;;;;;;;;4916120;29;20049;-55
2021/06/11 02:09:15;;;;;;;3.10;0.90;;;;;;;;;;4914954;29;20424;-55
2021/06/11 02:11:42;;;;;;;6.22;0.80;;;;;;;;;;4916837;29;20043;-55
2021/06/11 02:14:11;;;;;;;5.10;0.90;;;;;;;;;;4914195;29;20638;-55
2021/06/11 02:16:37;;;;;;;5.00;0.82;;;;;;;;;;4914879;29;20048;-55
2021/06/11 02:19:04;;;;;;;3.60;0.80;;;;;;;;;;4915839;29;20108;-55
2021/06/11 02:21:30;;;;;;;3.90;0.75;;;;;;;;;;4897089;29;20051;-54
2021/06/11 02:23:56;;;;;;;2.90;0.80;;;;;;;;;;4913950;29;20425;-55
2021/06/11 02:26:23;;;;;;;2.97;0.77;;;;;;;;;;4915733;29;20036;-54
2021/06/11 02:28:52;;;;;;;3.15;0.90;;;;;;;;;;4915646;29;20360;-55
2021/06/11 02:31:21;;;;;;;3.80;0.70;;;;;;;;;;4914754;29;20055;-56
2021/06/11 02:33:47;;;;;;;3.97;0.82;;;;;;;;;;4913643;29;20163;-57
2021/06/11 02:36:13;;;;;;;3.38;0.90;;;;;;;;;;4914987;29;20047;-57
2021/06/11 02:38:39;;;;;;;3.00;0.82;;;;;;;;;;4897920;29;20036;-56
2021/06/11 02:41:06;;;;;;;3.53;1.20;;;;;;;;;;4915607;29;20052;-57
2021/06/11 02:43:32;;;;;;;3.72;1.00;;;;;;;;;;4913388;29;20063;-57
2021/06/11 02:46:13;;;;;;;4.50;1.20;;;;;;;;;;4896713;29;20028;-53
2021/06/11 02:48:44;;;;;;;3.80;1.25;;;;;;;;;;4914658;29;20058;-55
2021/06/11 02:51:27;;;;;;;5.65;1.17;;;;;;;;;;4914800;29;20386;-56
2021/06/11 02:53:53;;;;;;;3.47;1.20;;;;;;;;;;4913642;29;20091;-57
2021/06/11 02:56:21;;;;;;;3.35;1.27;;;;;;;;;;4912374;29;20123;-56
2021/06/11 02:58:47;;;;;;;3.92;1.20;;;;;;;;;;4914100;29;20847;-56
2021/06/11 03:01:13;;;;;;;5.10;1.30;;;;;;;;;;4914258;29;20131;-55
2021/06/11 03:03:40;;;;;;;3.50;1.23;;;;;;;;;;4912625;29;20065;-57
2021/06/11 03:06:07;;;;;;;3.35;1.00;;;;;;;;;;4912950;29;20532;-57
2021/06/11 03:08:36;;;;;;;4.40;1.00;;;;;;;;;;4902960;29;20934;-54
2021/06/11 03:11:05;;;;;;;3.40;0.90;;;;;;;;;;4898668;29;20122;-57
2021/06/11 03:13:31;;;;;;;2.42;0.88;;;;;;;;;;4911866;29;20406;-55
2021/06/11 03:15:58;;;;;;;4.47;1.10;;;;;;;;;;4899914;29;20063;-56
2021/06/11 03:18:32;;;;;;;5.10;0.90;;;;;;;;;;4909786;29;20044;-57
2021/06/11 03:21:01;;;;;;;2.92;0.70;;;;;;;;;;4893427;29;20043;-57
2021/06/11 03:23:29;;;;;;;4.80;0.90;;;;;;;;;;4910581;29;20144;-56
2021/06/11 03:26:01;;;;;;;3.38;0.90;;;;;;;;;;4912266;29;20052;-58
2021/06/11 03:28:30;;;;;;;4.68;1.10;;;;;;;;;;4909612;29;20043;-57
2021/06/11 03:30:58;;;;;;;3.63;0.90;;;;;;;;;;4911644;29;20126;-57
2021/06/11 03:33:26;;;;;;;4.22;1.08;;;;;;;;;;4894232;29;20844;-57
2021/06/11 03:35:54;;;;;;;3.67;1.15;;;;;;;;;;4912456;29;20405;-56
2021/06/11 03:38:22;;;;;;;3.58;1.00;;;;;;;;;;4909996;29;20219;-56
2021/06/11 03:40:49;;;;;;;9.45;1.50;;;;;;;;;;4911314;29;20051;-58
2021/06/11 03:43:15;;;;;;;11.68;2.03;;;;;;;;;;4909937;29;20048;-58
2021/06/11 03:45:42;;;;;;;9.60;2.30;;;;;;;;;;4912157;29;20051;-56
2021/06/11 03:48:10;;;;;;;7.78;1.65;;;;;;;;;;4909395;29;20054;-55
2021/06/11 03:50:36;;;;;;;4.78;1.48;;;;;;;;;;4910677;29;20036;-56
2021/06/11 03:53:03;;;;;;;5.28;1.58;;;;;;;;;;4909986;29;20145;-54
2021/06/11 03:55:29;;;;;;;8.20;1.63;;;;;;;;;;4898607;29;20070;-52
2021/06/11 03:58:04;;;;;;;4.43;1.45;;;;;;;;;;4908972;29;20043;-54
2021/06/11 04:00:30;;;;;;;5.63;1.30;;;;;;;;;;4910425;29;20178;-54
2021/06/11 04:02:56;;;;;;;5.00;1.30;;;;;;;;;;4914797;29;20051;-53
2021/06/11 04:05:22;;;;;;;5.72;1.73;;;;;;;;;;4912865;29;20200;-55
2021/06/11 04:07:54;;;;;;;5.38;2.42;;;;;;;;;;4914280;29;22869;-54
2021/06/11 04:10:32;;;;;;;5.72;1.55;;;;;;;;;;4912844;29;20047;-53
2021/06/11 04:13:25;;;;;;;3.20;1.30;;;;;;;;;;4918477;29;20529;-55
2021/06/11 04:15:52;;;;;;;3.67;1.20;;;;;;;;;;4914125;29;20044;-54
2021/06/11 04:18:27;;;;;;;4.95;1.40;;;;;;;;;;4919203;29;20693;-55
2021/06/11 04:20:56;;;;;;;7.20;1.95;;;;;;;;;;4913035;29;20047;-55
2021/06/11 04:23:24;;;;;;;7.32;2.35;;;;;;;;;;4896739;29;20159;-55
2021/06/11 04:25:51;;;;;;;6.28;2.50;;;;;;;;;;4913520;29;20453;-52
2021/06/11 04:28:18;;;;;;;6.00;2.08;;;;;;;;;;4911023;29;20099;-55
2021/06/11 04:30:43;;;;;;;6.85;1.55;;;;;;;;;;4913020;29;20044;-55
2021/06/11 04:33:19;;;;;;;5.95;1.20;;;;;;;;;;4913116;29;20062;-54
2021/06/11 04:35:45;;;;;;;7.90;1.27;;;;;;;;;;4909456;29;20076;-53
2021/06/11 04:38:12;;;;;;;3.97;1.10;;;;;;;;;;4910170;29;20040;-55
2021/06/11 04:40:38;;;;;;;6.03;1.10;;;;;;;;;;4907777;29;20187;-54
2021/06/11 04:43:04;;;;;;;4.03;1.50;;;;;;;;;;4910287;29;20044;-55
2021/06/11 04:45:29;;;;;;;3.35;1.00;;;;;;;;;;4908520;29;20165;-52
2021/06/11 04:47:55;;;;;;;4.85;1.40;;;;;;;;;;4912767;29;20105;-55
2021/06/11 04:50:21;;;;;;;6.65;1.38;;;;;;;;;;4897014;29;20055;-55
2021/06/11 04:52:47;;;;;;;4.40;1.45;;;;;;;;;;4911172;29;20868;-53
2021/06/11 04:55:13;;;;;;;3.47;1.30;;;;;;;;;;4913466;29;20047;-56
2021/06/11 04:57:38;;;;;;;3.70;1.30;;;;;;;;;;4911480;29;20053;-55
2021/06/11 05:00:05;;;;;;;7.10;1.70;;;;;;;;;;4897825;29;20048;-55
2021/06/11 05:02:31;;;;;;;4.90;1.58;;;;;;;;;;4890677;29;20040;-55
2021/06/11 05:04:56;;;;;;;4.55;1.50;;;;;;;;;;4909172;29;20512;-54
2021/06/11 05:07:22;;;;;;;3.60;1.40;;;;;;;;;;4910378;29;20036;-52
2021/06/11 05:09:48;;;;;;;3.67;1.58;;;;;;;;;;4902481;29;20099;-55
2021/06/11 05:12:14;;;;;;;4.25;1.60;;;;;;;;;;4911825;29;20054;-55
2021/06/11 05:14:40;;;;;;;5.93;1.45;;;;;;;;;;4909883;29;20059;-56
2021/06/11 05:17:05;;;;;;;4.93;1.80;;;;;;;;;;4912426;29;20386;-55
2021/06/11 05:19:31;;;;;;;4.55;1.50;;;;;;;;;;4909953;29;20044;-54
2021/06/11 05:21:58;;;;;;;4.35;2.08;;;;;;;;;;4893806;29;20044;-55
2021/06/11 05:24:23;;;;;;;5.10;1.77;;;;;;;;;;4909295;29;20048;-55
2021/06/11 05:26:49;;;;;;;6.47;2.45;;;;;;;;;;4916189;29;20064;-55
2021/06/11 05:29:15;;;;;;;3.60;1.60;;;;;;;;;;4916212;29;20047;-55
2021/06/11 05:31:42;;;;;;;5.15;1.90;;;;;;;;;;4915330;29;20476;-55
2021/06/11 05:34:08;;;;;;;7.00;1.95;;;;;;;;;;4915363;29;20086;-54
2021/06/11 05:36:34;;;;;;;4.35;1.67;;;;;;;;;;4898679;29;20166;-53
2021/06/11 05:39:00;;;;;;;4.10;1.67;;;;;;;;;;4916121;29;20036;-52
2021/06/11 05:41:26;;;;;;;3.65;1.73;;;;;;;;;;4916233;29;20043;-54
2021/06/11 05:43:52;;;;;;;5.20;1.75;;;;;;;;;;4917493;29;20138;-53
2021/06/11 05:46:19;;;;;;;5.88;1.65;;;;;;;;;;4917344;29;20505;-53
2021/06/11 05:48:46;;;;;;;4.63;1.80;;;;;;;;;;4916799;29;20039;-52
2021/06/11 05:51:12;;;;;;;3.80;1.60;;;;;;;;;;4918785;29;20075;-53
2021/06/11 05:53:38;;;;;;;5.00;1.70;;;;;;;;;;4915910;29;20178;-54
2021/06/11 05:56:04;;;;;;;5.55;1.75;;;;;;;;;;4917292;29;20531;-55
2021/06/11 05:58:30;;;;;;;8.20;1.90;;;;;;;;;;4915887;29;20052;-51
2021/06/11 06:00:56;;;;;;;6.35;1.88;;;;;;;;;;4918129;29;20050;-54
2021/06/11 06:06:25;;;;;;;6.25;1.80;;;;;;;;;;4914856;29;20066;-55
2021/06/11 06:08:51;;;;;;;4.07;1.70;;;;;;;;;;4916097;29;20044;-55
2021/06/11 06:11:17;;;;;;;5.18;1.63;;;;;;;;;;4914824;29;20048;-53
2021/06/11 06:13:42;;;;;;;3.80;1.70;;;;;;;;;;4913107;29;20155;-55
2021/06/11 06:16:08;;;;;;;5.43;1.73;;;;;;;;;;4916361;29;20445;-54
2021/06/11 06:18:34;;;;;;;5.10;2.00;;;;;;;;;;4901087;29;20040;-54
2021/06/11 06:21:00;;;;;;;4.70;1.90;;;;;;;;;;4913647;29;20083;-52
2021/06/11 06:23:26;;;;;;;5.20;1.85;;;;;;;;;;4915104;29;20088;-55
2021/06/11 06:25:52;;;;;;;6.57;1.70;;;;;;;;;;4914438;29;20051;-51
2021/06/11 06:28:17;;;;;;;4.55;1.60;;;;;;;;;;4915135;29;20051;-55
2021/06/11 06:30:43;;;;;;;4.20;1.70;;;;;;;;;;4915057;29;20043;-55
2021/06/11 06:33:09;;;;;;;3.70;1.58;;;;;;;;;;4913942;29;20735;-54
2021/06/11 06:35:35;;;;;;;3.40;1.30;;;;;;;;;;4913844;29;20040;-55
2021/06/11 06:38:01;;;;;;;3.38;1.10;;;;;;;;;;4914371;29;20083;-54
2021/06/11 06:40:27;;;;;;;3.72;1.20;;;;;;;;;;4914118;29;20058;-53
2021/06/11 06:42:52;;;;;;;3.33;1.23;;;;;;;;;;4906222;29;20044;-51
2021/06/11 06:45:19;;;;;;;4.18;1.30;;;;;;;;;;4913074;29;20401;-55
2021/06/11 06:47:46;;;;;;;3.00;1.20;;;;;;;;;;4914804;29;20039;-54
2021/06/11 06:50:13;;;;;;;3.95;1.58;;;;;;;;;;4914027;29;20047;-55
2021/06/11 06:52:39;;;;;;;3.80;1.48;;;;;;;;;;4912267;29;20059;-55
2021/06/11 06:55:06;;;;;;;3.92;1.30;;;;;;;;;;4912671;29;20044;-55
2021/06/11 06:57:31;;;;;;;3.75;1.55;;;;;;;;;;4913239;29;20039;-54
2021/06/11 06:59:57;;;;;;;3.30;1.30;;;;;;;;;;4913921;29;20052;-54
2021/06/11 07:02:23;;;;;;;3.53;1.55;;;;;;;;;;4914276;29;20095;-54
2021/06/11 07:04:49;;;;;;;5.78;1.70;;;;;;;;;;4914021;29;20051;-53
2021/06/11 07:07:16;;;;;;;3.78;1.50;;;;;;;;;;4913546;29;20040;-54
2021/06/11 07:09:42;;;;;;;6.47;1.70;;;;;;;;;;4913930;29;20044;-53
2021/06/11 07:12:09;;;;;;;4.63;1.58;;;;;;;;;;4914188;29;20055;-55
2021/06/11 07:14:36;;;;;;;3.40;1.50;;;;;;;;;;4912545;29;20044;-54
2021/06/11 07:17:02;;;;;;;4.20;1.50;;;;;;;;;;4913535;29;20037;-53
2021/06/11 07:19:28;;;;;;;4.72;1.80;;;;;;;;;;4913129;29;20679;-55
2021/06/11 07:21:54;;;;;;;4.90;1.60;;;;;;;;;;4913439;29;20535;-54
2021/06/11 07:24:20;;;;;;;5.95;1.80;;;;;;;;;;4912983;29;20052;-54
2021/06/11 07:26:46;;;;;;;3.65;1.50;;;;;;;;;;4913570;29;20044;-52
2021/06/11 07:29:12;;;;;;;3.30;1.65;;;;;;;;;;4912935;29;20066;-55
2021/06/11 07:31:38;;;;;;;4.57;1.80;;;;;;;;;;4913972;29;20128;-54
2021/06/11 07:34:04;;;;;;;4.18;1.80;;;;;;;;;;4902775;29;21818;-55
2021/06/11 07:36:30;;;;;;;4.88;1.90;;;;;;;;;;4913039;29;20047;-54
2021/06/11 07:38:56;;;;;;;4.35;1.70;;;;;;;;;;4913639;29;20060;-55
2021/06/11 07:41:22;;;;;;;5.75;2.08;;;;;;;;;;4912587;29;20072;-55
2021/06/11 07:43:50;;;;;;;4.15;2.10;;;;;;;;;;4913316;29;20187;-55
2021/06/11 07:46:17;;;;;;;5.15;2.05;;;;;;;;;;4912719;29;20039;-54
2021/06/11 07:48:42;;;;;;;4.97;2.05;;;;;;;;;;4912572;29;20043;-53
2021/06/11 07:51:08;;;;;;;3.72;1.85;;;;;;;;;;4911221;29;20094;-53
2021/06/11 07:53:34;;;;;;;5.22;1.90;;;;;;;;;;4893061;29;20137;-56
2021/06/11 07:56:00;;;;;;;5.30;2.00;;;;;;;;;;4912443;29;20090;-53
2021/06/11 07:58:26;;;;;;;3.85;1.92;;;;;;;;;;4886221;29;20047;-54
2021/06/11 08:00:52;;;;;;;6.40;1.90;;;;;;;;;;4913098;29;20054;-56
2021/06/11 08:03:18;;;;;;;3.80;1.63;;;;;;;;;;4911520;29;20052;-54
2021/06/11 08:05:44;;;;;;;5.38;2.00;;;;;;;;;;4896654;29;20055;-55
2021/06/11 08:08:10;;;;;;;6.95;2.08;;;;;;;;;;4913086;29;20075;-55
2021/06/11 08:10:35;;;;;;;2.80;1.30;;;;;;;;;;4912774;29;20036;-55
2021/06/11 08:13:03;;;;;;;2.58;1.08;;;;;;;;;;4916976;29;20044;-56
2021/06/11 08:15:29;;;;;;;3.20;1.30;;;;;;;;;;4912837;29;20051;-53
2021/06/11 08:17:55;;;;;;;4.85;1.27;;;;;;;;;;4914082;29;20036;-55
2021/06/11 08:20:21;;;;;;;6.63;1.30;;;;;;;;;;4913917;29;20042;-55
2021/06/11 08:22:46;;;;;;;3.35;1.10;;;;;;;;;;4913520;29;20040;-54
2021/06/11 08:25:13;;;;;;;3.15;1.33;;;;;;;;;;4911664;29;20130;-56
2021/06/11 08:27:38;;;;;;;3.95;1.10;;;;;;;;;;4912031;29;20047;-55
2021/06/11 08:30:06;;;;;;;3.17;1.20;;;;;;;;;;4911981;29;20036;-55
2021/06/11 08:32:31;;;;;;;3.10;0.90;;;;;;;;;;4913483;29;20047;-54
2021/06/11 08:34:57;;;;;;;4.88;0.80;;;;;;;;;;4911891;29;20547;-56
2021/06/11 08:37:23;;;;;;;2.88;0.93;;;;;;;;;;4912015;29;20051;-54
2021/06/11 08:39:53;;;;;;;2.85;0.90;;;;;;;;;;4913152;29;20039;-53
2021/06/11 08:42:27;;;;;;;2.63;1.00;;;;;;;;;;4910924;29;20043;-53
2021/06/11 08:44:53;;;;;;;2.80;1.05;;;;;;;;;;4912377;29;20697;-52
2021/06/11 08:47:19;;;;;;;4.43;1.00;;;;;;;;;;4910412;29;20078;-56
2021/06/11 08:49:45;;;;;;;3.28;0.80;;;;;;;;;;4911710;29;20167;-55
2021/06/11 08:52:10;;;;;;;3.60;0.90;;;;;;;;;;4910800;29;20146;-55
2021/06/11 08:54:36;;;;;;;3.85;0.80;;;;;;;;;;4909282;29;20040;-56
2021/06/11 08:57:04;;;;;;;2.70;0.85;;;;;;;;;;4910503;29;20493;-52
2021/06/11 08:59:29;;;;;;;2.95;0.90;;;;;;;;;;4898250;29;20051;-53
2021/06/11 09:01:55;;;;;;;2.50;0.80;;;;;;;;;;4913103;29;20035;-54
2021/06/11 09:04:41;;;;;;;2.60;0.85;;;;;;;;;;4909132;29;20186;-52
2021/06/11 09:07:19;;;;;;;3.40;0.90;;;;;;;;;;4909707;29;20059;-54
2021/06/11 09:09:49;;;;;;;2.15;0.70;;;;;;;;;;4909833;29;20039;-55
2021/06/11 09:12:30;;;;;;;2.17;0.73;;;;;;;;;;4912058;29;20040;-53
2021/06/11 09:14:56;;;;;;;2.92;0.70;;;;;;;;;;4909331;29;20051;-56
2021/06/11 09:17:35;;;;;;;3.13;0.82;;;;;;;;;;4910417;29;20118;-55
2021/06/11 09:20:03;;;;;;;2.25;0.70;;;;;;;;;;4911048;29;20071;-53
2021/06/11 09:23:00;;;;;;;2.35;0.73;;;;;;;;;;4912115;29;20036;-53
2021/06/11 09:25:33;;;;;;;2.40;0.70;;;;;;;;;;4892793;29;20445;-52
2021/06/11 09:28:05;;;;;;;2.92;0.90;;;;;;;;;;4911231;29;20075;-53
2021/06/11 09:30:32;;;;;;;2.45;0.80;;;;;;;;;;4908881;29;20067;-55
2021/06/11 09:32:59;;;;;;;2.50;0.68;;;;;;;;;;4910319;29;20040;-53
2021/06/11 09:35:44;;;;;;;2.50;0.70;;;;;;;;;;4909018;29;20044;-52
2021/06/11 09:38:25;;;;;;;2.75;0.70;;;;;;;;;;4893890;29;20059;-53
2021/06/11 09:41:04;;;;;;;2.78;0.63;;;;;;;;;;4909711;29;20469;-54
2021/06/11 09:43:31;;;;;;;2.70;0.80;;;;;;;;;;4910065;29;20070;-54
2021/06/11 09:46:04;;;;;;;2.70;0.88;;;;;;;;;;4911663;29;20055;-52
2021/06/11 09:48:39;;;;;;;4.82;1.00;;;;;;;;;;4909885;29;20040;-54
2021/06/11 09:51:12;;;;;;;2.47;0.80;;;;;;;;;;4910811;29;20074;-53
2021/06/11 09:53:38;;;;;;;2.45;0.80;;;;;;;;;;4909497;29;20545;-53
2021/06/11 09:56:04;;;;;;;2.60;0.80;;;;;;;;;;4913222;29;20057;-54
2021/06/11 09:58:33;;;;;;;3.25;0.80;;;;;;;;;;4910732;29;20176;-54
2021/06/11 10:00:59;;;;;;;2.65;0.77;;;;;;;;;;4909562;29;20036;-54
2021/06/11 10:03:29;;;;;;;3.00;0.80;;;;;;;;;;4909952;29;20048;-51
2021/06/11 10:05:56;;;;;;;3.15;0.70;;;;;;;;;;4909833;29;20056;-54
2021/06/11 10:08:22;;;;;;;3.33;0.90;;;;;;;;;;4909036;29;20430;-52
2021/06/11 10:10:49;;;;;;;2.35;0.70;;;;;;;;;;4911727;29;20047;-52
2021/06/11 10:13:16;;;;;;;3.63;1.25;;;;;;;;;;4914336;29;20770;-54
2021/06/11 10:15:43;;;;;;;2.28;0.75;;;;;;;;;;4911388;29;20936;-53
2021/06/11 10:18:10;;;;;;;2.50;0.82;;;;;;;;;;4898751;29;20063;-53
2021/06/11 10:20:36;;;;;;;3.75;1.00;;;;;;;;;;4914994;29;20040;-51
2021/06/11 10:23:04;;;;;;;3.33;0.90;;;;;;;;;;4915536;29;20091;-54
2021/06/11 10:25:30;;;;;;;3.15;0.90;;;;;;;;;;4912540;29;20135;-53
2021/06/11 10:27:56;;;;;;;2.60;1.00;;;;;;;;;;4914952;29;20046;-53
2021/06/11 10:30:24;;;;;;;4.97;1.13;;;;;;;;;;4914046;29;20115;-52
2021/06/11 10:32:50;;;;;;;3.70;1.10;;;;;;;;;;4913351;29;20040;-53
2021/06/11 10:35:35;;;;;;;3.05;1.00;;;;;;;;;;4914026;29;20040;-54
2021/06/11 10:38:00;;;;;;;3.20;1.00;;;;;;;;;;4913701;29;20039;-55
2021/06/11 10:40:34;;;;;;;3.85;0.88;;;;;;;;;;4913856;29;20070;-54
2021/06/11 10:43:18;;;;;;;2.67;0.80;;;;;;;;;;4912020;29;20059;-53
2021/06/11 10:45:44;;;;;;;3.20;0.80;;;;;;;;;;4913088;29;20056;-52
2021/06/11 10:48:10;;;;;;;3.25;1.02;;;;;;;;;;4912752;29;20161;-54
2021/06/11 10:50:37;;;;;;;4.32;0.82;;;;;;;;;;4893896;29;20040;-52
2021/06/11 10:53:29;;;;;;;2.20;0.73;;;;;;;;;;4913614;29;20078;-51
2021/06/11 10:56:12;;;;;;;2.70;0.80;;;;;;;;;;4911453;29;20554;-53
2021/06/11 10:58:39;;;;;;;4.50;0.90;;;;;;;;;;4912878;29;20482;-51
2021/06/11 11:01:21;;;;;;;3.63;0.70;;;;;;;;;;4913889;29;20032;-54
2021/06/11 11:03:47;;;;;;;5.93;2.10;;;;;;;;;;4912906;29;20047;-53
2021/06/11 11:06:26;;;;;;;6.20;1.55;;;;;;;;;;4913085;29;20462;-53
2021/06/11 11:08:52;;;;;;;4.32;1.15;;;;;;;;;;4914153;29;20087;-52
2021/06/11 11:11:25;;;;;;;3.67;0.73;;;;;;;;;;4914811;29;20048;-52
2021/06/11 11:13:51;;;;;;;2.65;0.80;;;;;;;;;;4915423;29;20107;-51
2021/06/11 11:16:24;;;;;;;2.70;0.88;;;;;;;;;;4914333;29;20059;-55
2021/06/11 11:18:50;;;;;;;4.15;1.15;;;;;;;;;;4914522;29;20071;-53
2021/06/11 11:21:23;;;;;;;2.35;0.80;;;;;;;;;;4915740;29;20046;-54
2021/06/11 11:23:51;;;;;;;2.50;0.80;;;;;;;;;;4917696;29;20031;-54
2021/06/11 11:26:18;;;;;;;5.50;0.90;;;;;;;;;;4916685;29;20100;-54
2021/06/11 11:28:43;;;;;;;3.65;0.90;;;;;;;;;;4915513;29;20080;-54
2021/06/11 11:31:09;;;;;;;2.60;0.68;;;;;;;;;;4915978;29;20615;-54
2021/06/11 11:33:35;;;;;;;3.60;0.90;;;;;;;;;;4896868;29;20046;-54
2021/06/11 11:36:02;;;;;;;4.93;1.13;;;;;;;;;;4912463;29;20406;-54
2021/06/11 11:38:28;;;;;;;3.65;0.90;;;;;;;;;;4912808;29;20040;-51
2021/06/11 11:40:54;;;;;;;3.33;0.90;;;;;;;;;;4913578;29;20520;-53
2021/06/11 11:43:20;;;;;;;5.03;1.13;;;;;;;;;;4913735;29;20036;-52
2021/06/11 11:45:45;;;;;;;5.85;1.20;;;;;;;;;;4913351;29;20048;-52
2021/06/11 11:48:27;;;;;;;4.35;1.20;;;;;;;;;;4893796;29;20074;-54
2021/06/11 11:50:52;;;;;;;6.45;0.95;;;;;;;;;;4895772;29;20429;-55
2021/06/11 11:53:18;;;;;;;5.22;0.85;;;;;;;;;;4911867;29;20056;-55
2021/06/11 11:55:44;;;;;;;4.00;0.95;;;;;;;;;;4913632;29;20044;-55
2021/06/11 11:58:10;;;;;;;3.28;1.00;;;;;;;;;;4912580;29;20664;-56
2021/06/11 12:00:36;;;;;;;3.50;1.13;;;;;;;;;;4913535;29;20038;-54
2021/06/11 12:03:02;;;;;;;9.32;0.90;;;;;;;;;;4914668;29;20125;-54
2021/06/11 12:05:28;;;;;;;2.55;0.80;;;;;;;;;;4913021;29;20048;-55
2021/06/11 12:07:54;;;;;;;7.25;1.10;;;;;;;;;;4912701;29;20066;-54
2021/06/11 12:10:20;;;;;;;3.08;0.88;;;;;;;;;;4912628;29;20050;-54
2021/06/11 12:12:45;;;;;;;3.88;0.90;;;;;;;;;;4913249;29;20044;-55
2021/06/11 12:15:12;;;;;;;3.78;0.88;;;;;;;;;;4902449;29;20056;-56
2021/06/11 12:17:38;;;;;;;5.30;1.02;;;;;;;;;;4909780;29;20050;-57
2021/06/11 12:20:04;;;;;;;4.85;1.00;;;;;;;;;;4911092;29;20732;-56
2021/06/11 12:22:30;;;;;;;6.25;0.85;;;;;;;;;;4909287;29;20384;-57
2021/06/11 12:24:56;;;;;;;5.72;0.80;;;;;;;;;;4912723;29;20054;-56
2021/06/11 12:27:21;;;;;;;3.78;1.02;;;;;;;;;;4909590;29;20469;-54
2021/06/11 12:29:48;;;;;;;4.82;0.80;;;;;;;;;;4910794;29;20047;-56
2021/06/11 12:32:14;;;;;;;6.93;1.00;;;;;;;;;;4911682;29;20040;-56
2021/06/11 12:34:39;;;;;;;7.15;1.98;;;;;;;;;;4909575;29;20047;-57
2021/06/11 12:37:06;;;;;;;3.60;0.93;;;;;;;;;;4909837;29;20043;-56
2021/06/11 12:39:31;;;;;;;5.78;0.88;;;;;;;;;;4909710;29;20081;-55
2021/06/11 12:42:00;;;;;;;5.35;1.00;;;;;;;;;;4906521;29;20043;-56
2021/06/11 12:44:26;;;;;;;4.35;0.90;;;;;;;;;;4910525;29;20059;-56
2021/06/11 12:46:52;;;;;;;6.38;0.95;;;;;;;;;;4909069;29;20040;-57
2021/06/11 12:49:22;;;;;;;5.20;0.90;;;;;;;;;;4908966;29;20044;-57
2021/06/11 12:51:48;;;;;;;2.75;0.90;;;;;;;;;;4911594;29;20079;-57
2021/06/11 12:54:14;;;;;;;7.00;1.00;;;;;;;;;;4895860;29;20575;-57
2021/06/11 12:56:40;;;;;;;3.33;0.90;;;;;;;;;;4902932;29;20059;-57
2021/06/11 12:59:06;;;;;;;4.25;0.75;;;;;;;;;;4907439;29;20039;-54
2021/06/11 13:01:32;;;;;;;3.55;0.80;;;;;;;;;;4912288;29;20046;-57
2021/06/11 13:03:58;;;;;;;4.03;0.90;;;;;;;;;;4911142;29;20501;-54
2021/06/11 13:06:24;;;;;;;2.42;0.80;;;;;;;;;;4909746;29;20421;-57
2021/06/11 13:08:50;;;;;;;2.67;0.77;;;;;;;;;;4910737;29;20351;-55
2021/06/11 13:11:16;;;;;;;5.10;0.93;;;;;;;;;;4884473;29;20052;-56
2021/06/11 13:13:42;;;;;;;3.92;1.10;;;;;;;;;;4908079;29;20067;-53
2021/06/11 13:16:08;;;;;;;2.38;0.80;;;;;;;;;;4907013;29;20502;-56
2021/06/11 13:18:34;;;;;;;2.30;0.75;;;;;;;;;;4910813;29;20512;-57
2021/06/11 13:21:00;;;;;;;2.42;0.73;;;;;;;;;;4911851;29;20044;-56
2021/06/11 13:23:26;;;;;;;2.63;0.70;;;;;;;;;;4910904;29;20088;-56
2021/06/11 13:25:52;;;;;;;5.22;0.75;;;;;;;;;;4912718;29;20886;-58
2021/06/11 13:28:18;;;;;;;2.45;0.70;;;;;;;;;;4895041;29;20051;-57
2021/06/11 13:30:44;;;;;;;3.90;1.00;;;;;;;;;;4911959;29;20078;-57
2021/06/11 13:33:10;;;;;;;3.33;0.70;;;;;;;;;;4911954;29;20040;-56
2021/06/11 13:35:37;;;;;;;4.03;0.70;;;;;;;;;;4910495;29;20052;-56
2021/06/11 13:38:02;;;;;;;3.78;0.70;;;;;;;;;;4910148;29;20040;-57
2021/06/11 13:40:28;;;;;;;4.25;0.70;;;;;;;;;;4911066;29;20535;-57
2021/06/11 13:42:54;;;;;;;5.43;0.82;;;;;;;;;;4910601;29;20067;-57
2021/06/11 13:45:20;;;;;;;6.90;1.55;;;;;;;;;;4905354;29;20087;-55
2021/06/11 13:47:46;;;;;;;2.30;0.70;;;;;;;;;;4915056;29;20621;-57
2021/06/11 13:50:17;;;;;;;3.60;0.63;;;;;;;;;;4915579;29;20053;-57
2021/06/11 13:52:43;;;;;;;4.72;0.60;;;;;;;;;;4914892;29;20187;-58
2021/06/11 13:55:09;;;;;;;1.17;0.50;;;;;;;;;;4917587;29;20162;-56
2021/06/11 13:57:35;;;;;;;2.30;0.60;;;;;;;;;;4914241;29;20039;-56
2021/06/11 14:00:04;;;;;;;3.55;1.00;;;;;;;;;;4911424;29;20199;-55
2021/06/11 14:02:30;;;;;;;2.50;0.70;;;;;;;;;;4904525;29;20042;-53
2021/06/11 14:04:56;;;;;;;7.05;0.88;;;;;;;;;;4915783;29;20392;-54
2021/06/11 14:07:21;;;;;;;3.53;0.75;;;;;;;;;;4913289;29;20047;-55
2021/06/11 14:09:47;;;;;;;2.90;0.70;;;;;;;;;;4913686;29;20047;-56
2021/06/11 14:12:13;;;;;;;5.03;0.85;;;;;;;;;;4911748;29;20810;-53
2021/06/11 14:14:39;;;;;;;4.60;0.80;;;;;;;;;;4912565;29;20056;-56
2021/06/11 14:17:05;;;;;;;2.85;0.63;;;;;;;;;;4913085;29;20058;-56
2021/06/11 14:19:31;;;;;;;4.63;0.80;;;;;;;;;;4913003;29;20040;-55
2021/06/11 14:21:57;;;;;;;5.88;0.80;;;;;;;;;;4914397;29;20040;-55
2021/06/11 14:24:22;;;;;;;2.40;0.70;;;;;;;;;;4911205;29;20091;-55
2021/06/11 14:26:48;;;;;;;2.45;0.63;;;;;;;;;;4913825;29;20040;-55
2021/06/11 14:29:14;;;;;;;2.30;0.70;;;;;;;;;;4913374;29;20079;-54
2021/06/11 14:31:40;;;;;;;2.38;0.70;;;;;;;;;;4909727;29;20110;-53
2021/06/11 14:34:06;;;;;;;2.70;0.70;;;;;;;;;;4909838;29;20452;-54
2021/06/11 14:36:32;;;;;;;2.28;0.60;;;;;;;;;;4909087;29;20028;-56
2021/06/11 14:38:58;;;;;;;3.42;0.70;;;;;;;;;;4896788;29;20527;-55
2021/06/11 14:41:24;;;;;;;4.10;0.70;;;;;;;;;;4911667;29;20102;-53
2021/06/11 14:43:51;;;;;;;3.25;0.73;;;;;;;;;;4914651;29;20606;-56
2021/06/11 14:46:16;;;;;;;2.33;0.80;;;;;;;;;;4914197;29;20056;-54
2021/06/11 14:48:42;;;;;;;3.35;1.15;;;;;;;;;;4913049;29;20476;-57